createdAt,value
2017-07-05T08:42:06.354Z,8168
2017-07-05T08:43:05.665Z,8096
2017-07-05T08:44:06.342Z,8032
2017-07-05T08:45:05.687Z,8004
2017-07-05T08:46:06.365Z,7996
2017-07-05T08:47:06.026Z,7944
2017-07-05T08:48:06.361Z,7896
2017-07-05T08:49:06.362Z,7788
2017-07-05T08:50:06.046Z,7692
2017-07-05T08:51:06.377Z,7620
2017-07-05T08:52:06.708Z,7588
2017-07-05T08:53:06.082Z,7472
2017-07-05T08:54:06.726Z,7372
2017-07-05T08:55:06.102Z,7304
2017-07-05T08:56:06.422Z,7240
2017-07-05T08:57:10.844Z,7172
2017-07-05T08:58:06.447Z,7140
2017-07-05T08:59:06.135Z,7092
2017-07-05T09:00:06.144Z,7068
2017-07-05T09:01:06.475Z,7032
2017-07-05T09:02:06.814Z,6980
2017-07-05T09:03:06.498Z,6944
2017-07-05T09:04:06.839Z,6924
2017-07-05T09:05:06.888Z,6948
2017-07-05T09:06:06.853Z,6936
2017-07-05T09:07:06.857Z,6900
2017-07-05T09:08:06.555Z,6876
2017-07-05T09:09:06.251Z,6840
2017-07-05T09:10:06.565Z,6824
2017-07-05T09:11:05.936Z,6804
2017-07-05T09:12:07.010Z,6776
2017-07-05T09:13:06.598Z,6772
2017-07-05T09:14:06.607Z,6768
2017-07-05T09:15:06.622Z,6724
2017-07-05T09:16:06.943Z,6692
2017-07-05T09:17:06.317Z,6584
2017-07-05T09:18:06.324Z,6556
2017-07-05T09:19:06.971Z,6556
2017-07-05T09:20:06.661Z,6600
2017-07-05T09:21:06.031Z,6592
2017-07-05T09:22:06.364Z,6560
2017-07-05T09:23:06.683Z,6572
2017-07-05T09:24:06.372Z,6628
2017-07-05T09:25:07.034Z,6656
2017-07-05T15:50:19.011Z,6052
2017-07-05T15:51:17.032Z,5796
2017-07-05T15:52:16.906Z,5584
2017-07-05T15:53:17.058Z,6144
2017-07-05T15:54:17.059Z,6396
2017-07-05T15:55:18.275Z,6644
2017-07-05T15:56:16.740Z,6768
2017-07-05T15:57:16.431Z,6840
2017-07-05T15:58:17.093Z,6884
2017-07-05T15:59:17.420Z,6900
2017-07-05T16:00:18.273Z,6904
2017-07-05T16:01:16.791Z,6896
2017-07-05T16:02:17.105Z,6840
2017-07-05T16:03:17.124Z,6744
2017-07-05T16:04:16.805Z,6652
2017-07-05T16:05:19.624Z,6500
2017-07-05T16:06:17.133Z,6260
2017-07-05T16:07:16.823Z,5640
2017-07-05T16:08:16.841Z,5696
2017-07-05T16:09:17.474Z,5732
2017-07-05T16:10:18.385Z,5972
2017-07-05T16:11:17.176Z,5768
2017-07-05T16:12:17.503Z,5860
2017-07-05T16:13:16.881Z,5912
2017-07-05T16:14:17.522Z,5880
2017-07-05T16:15:18.429Z,5816
2017-07-05T16:16:17.209Z,5756
2017-07-05T16:17:16.888Z,5696
2017-07-05T16:18:17.545Z,5608
2017-07-05T16:19:17.230Z,5584
2017-07-05T16:20:18.547Z,5520
2017-07-05T16:21:17.574Z,5424
2017-07-05T16:22:17.246Z,5392
2017-07-05T16:23:16.632Z,5324
2017-07-05T16:24:16.946Z,5276
2017-07-05T16:25:18.797Z,5164
2017-07-05T16:26:16.962Z,5056
2017-07-05T16:27:16.983Z,5140
2017-07-05T16:28:17.617Z,5108
2017-07-05T16:29:17.626Z,5188
2017-07-05T16:30:18.558Z,4556
2017-07-05T16:31:17.313Z,5132
2017-07-05T16:32:17.320Z,5092
2017-07-05T16:33:17.339Z,5184
2017-07-05T16:34:17.347Z,5192
2017-07-05T16:35:17.828Z,5192
2017-07-05T16:36:17.043Z,5004
2017-07-05T16:37:17.694Z,4800
2017-07-05T16:38:17.758Z,4184
2017-07-05T16:39:16.758Z,4384
2017-07-05T16:40:18.659Z,5100
2017-07-05T16:41:17.709Z,5148
2017-07-05T16:42:17.395Z,5172
2017-07-05T16:43:17.417Z,5184
2017-07-05T16:44:17.426Z,5180
2017-07-05T16:45:18.542Z,5144
2017-07-05T16:46:17.761Z,5140
2017-07-05T16:47:17.757Z,5124
2017-07-05T16:48:17.481Z,5108
2017-07-05T16:49:17.480Z,5108
2017-07-05T16:50:17.378Z,4936
2017-07-05T16:51:17.607Z,5032
2017-07-05T16:52:17.545Z,5052
2017-07-05T16:53:17.179Z,5012
2017-07-05T16:54:17.517Z,4972
2017-07-05T16:55:18.445Z,4860
2017-07-05T16:56:17.615Z,4680
2017-07-05T16:57:17.519Z,4884
2017-07-05T16:58:17.511Z,4864
2017-07-05T16:59:17.848Z,4884
2017-07-05T17:00:18.210Z,4812
2017-07-05T17:01:17.217Z,4844
2017-07-05T17:02:17.241Z,4968
2017-07-05T17:03:17.877Z,5036
2017-07-05T17:04:17.980Z,5080
2017-07-05T17:05:18.414Z,5096
2017-07-05T17:06:17.948Z,5084
2017-07-05T17:07:17.904Z,5092
2017-07-05T17:08:17.909Z,5052
2017-07-05T17:09:17.281Z,4996
2017-07-05T17:10:18.102Z,5048
2017-07-05T17:11:17.651Z,5024
2017-07-05T17:12:17.623Z,4976
2017-07-05T17:13:17.628Z,4928
2017-07-05T17:14:17.320Z,4848
2017-07-05T17:15:18.242Z,4736
2017-07-05T17:16:17.656Z,4664
2017-07-05T17:17:17.011Z,4624
2017-07-05T17:18:17.669Z,4556
2017-07-05T17:19:17.680Z,4456
2017-07-05T17:20:18.123Z,4380
2017-07-05T17:21:21.046Z,4416
2017-07-05T17:22:17.382Z,4416
2017-07-05T17:23:17.715Z,4448
2017-07-05T17:24:17.705Z,4420
2017-07-05T17:25:18.168Z,4372
2017-07-05T17:26:17.725Z,4240
2017-07-05T17:27:17.431Z,4196
2017-07-05T17:28:17.411Z,4172
2017-07-05T17:29:17.742Z,4084
2017-07-05T17:30:18.651Z,4084
2017-07-05T17:31:17.436Z,4056
2017-07-05T17:32:17.774Z,3932
2017-07-05T17:33:18.013Z,3932
2017-07-05T17:34:17.461Z,3888
2017-07-05T17:35:18.548Z,3908
2017-07-05T17:36:17.595Z,3772
2017-07-05T17:37:17.494Z,3692
2017-07-05T17:38:17.916Z,3648
2017-07-05T17:45:04.806Z,3816
2017-07-05T17:45:52.026Z,3632
2017-07-05T17:46:52.019Z,3660
2017-07-05T17:47:53.891Z,3768
2017-07-05T17:48:52.334Z,3908
2017-07-05T17:49:53.412Z,4012
2017-07-05T17:50:54.184Z,4240
2017-07-05T17:51:51.800Z,4288
2017-07-05T17:52:51.472Z,4268
2017-07-05T17:53:54.418Z,4224
2017-07-05T17:54:51.811Z,4236
2017-07-05T17:55:51.498Z,4288
2017-07-05T17:56:52.135Z,4172
2017-07-05T17:57:51.100Z,4004
2017-07-05T17:58:51.393Z,3812
2017-07-05T17:59:51.513Z,3660
2017-07-05T18:00:52.676Z,3580
2017-07-05T18:01:51.731Z,3496
2017-07-05T18:02:51.048Z,3532
2017-07-05T18:03:51.607Z,3516
2017-07-05T18:04:51.240Z,3600
2017-07-05T18:05:50.721Z,3684
2017-07-05T18:06:51.022Z,3720
2017-07-05T18:07:50.777Z,3752
2017-07-05T18:08:51.458Z,3748
2017-07-05T18:09:50.636Z,3724
2017-07-05T18:10:50.702Z,3708
2017-07-05T18:11:51.356Z,3680
2017-07-05T18:12:50.666Z,3660
2017-07-05T18:13:50.333Z,3652
2017-07-05T18:15:16.246Z,3600
2017-07-05T18:15:52.231Z,3572
2017-07-05T18:16:51.172Z,3476
2017-07-05T18:17:50.726Z,3368
2017-07-05T18:18:50.821Z,3384
2017-07-05T18:19:50.475Z,3344
2017-07-05T18:20:50.797Z,3316
2017-07-05T18:21:50.822Z,3272
2017-07-05T18:22:50.805Z,3212
2017-07-05T18:23:50.880Z,3156
2017-07-05T18:24:50.822Z,3076
2017-07-05T18:25:50.180Z,3012
2017-07-05T18:26:50.502Z,2996
2017-07-05T18:27:50.835Z,3016
2017-07-05T18:28:51.154Z,3028
2017-07-05T18:29:50.843Z,3012
2017-07-05T18:30:50.650Z,2952
2017-07-05T18:31:50.227Z,2844
2017-07-05T18:32:51.660Z,2724
2017-07-05T18:33:50.873Z,2736
2017-07-05T18:34:50.882Z,2716
2017-07-05T18:35:50.886Z,2696
2017-07-05T18:36:50.926Z,2704
2017-07-05T18:37:51.231Z,2688
2017-07-05T18:38:50.613Z,2644
2017-07-05T18:39:51.249Z,2580
2017-07-05T18:40:50.746Z,2512
2017-07-05T18:41:51.538Z,2444
2017-07-05T18:42:50.695Z,2388
2017-07-05T18:43:50.973Z,2336
2017-07-05T18:44:50.950Z,2292
2017-07-05T18:45:52.998Z,2244
2017-07-05T18:46:50.989Z,2208
2017-07-05T18:47:51.031Z,2164
2017-07-05T18:48:50.653Z,2124
2017-07-05T18:49:50.979Z,2092
2017-07-05T18:50:50.664Z,2084
2017-07-05T18:51:51.309Z,2048
2017-07-05T18:52:51.006Z,1968
2017-07-05T18:53:50.722Z,1928
2017-07-05T18:54:50.970Z,1872
2017-07-05T18:55:50.700Z,1828
2017-07-05T18:56:51.417Z,1784
2017-07-05T18:57:51.023Z,1736
2017-07-05T18:58:51.092Z,1688
2017-07-05T18:59:51.372Z,1644
2017-07-05T19:00:50.721Z,1600
2017-07-05T19:01:51.156Z,1548
2017-07-05T19:02:50.738Z,1496
2017-07-05T19:03:51.074Z,1444
2017-07-05T19:04:51.074Z,1396
2017-07-05T19:05:51.078Z,1344
2017-07-05T19:06:50.439Z,1304
2017-07-05T19:07:51.096Z,1264
2017-07-05T19:08:51.202Z,1220
2017-07-05T19:09:50.791Z,1168
2017-07-05T19:10:51.115Z,1100
2017-07-05T19:11:51.165Z,1032
2017-07-05T19:12:50.802Z,976
2017-07-05T19:13:51.463Z,912
2017-07-05T19:14:50.811Z,852
2017-07-05T19:15:51.134Z,800
2017-07-05T19:16:52.933Z,756
2017-07-05T19:17:50.823Z,720
2017-07-05T19:18:51.220Z,680
2017-07-05T19:19:51.163Z,636
2017-07-05T19:20:50.848Z,596
2017-07-05T19:21:50.857Z,564
2017-07-05T19:22:51.509Z,524
2017-07-05T19:23:51.194Z,484
2017-07-05T19:24:51.201Z,448
2017-07-05T19:25:50.566Z,412
2017-07-05T19:26:51.543Z,380
2017-07-05T19:27:51.054Z,356
2017-07-05T19:28:51.271Z,332
2017-07-05T19:29:51.230Z,308
2017-07-05T19:30:51.229Z,280
2017-07-05T19:31:51.665Z,260
2017-07-05T19:32:50.972Z,240
2017-07-05T19:33:51.565Z,216
2017-07-05T19:34:51.418Z,196
2017-07-05T19:35:51.735Z,180
2017-07-05T19:36:51.259Z,160
2017-07-05T19:37:51.596Z,148
2017-07-05T19:38:50.954Z,136
2017-07-05T19:39:51.602Z,120
2017-07-05T19:40:51.303Z,112
2017-07-05T19:41:51.365Z,96
2017-07-05T19:42:51.622Z,88
2017-07-05T19:43:51.303Z,80
2017-07-05T19:44:51.331Z,72
2017-07-05T19:45:51.316Z,64
2017-07-05T19:46:58.700Z,56
2017-07-05T19:47:51.360Z,48
2017-07-05T19:48:50.691Z,44
2017-07-05T19:49:50.703Z,40
2017-07-05T19:50:51.666Z,32
2017-07-05T19:51:51.027Z,28
2017-07-05T19:52:51.037Z,28
2017-07-05T19:53:51.030Z,24
2017-07-05T19:54:51.061Z,20
2017-07-05T19:55:51.045Z,16
2017-07-05T19:56:51.384Z,16
2017-07-05T19:57:51.728Z,16
2017-07-05T19:58:51.729Z,12
2017-07-05T19:59:51.070Z,8
2017-07-05T20:00:51.193Z,8
2017-07-05T20:01:51.784Z,8
2017-07-05T20:02:52.199Z,8
2017-07-05T20:03:51.728Z,8
2017-07-05T20:04:51.749Z,4
2017-07-05T20:05:51.104Z,8
2017-07-05T20:06:51.756Z,4
2017-07-05T20:07:50.804Z,4
2017-07-05T20:08:51.119Z,4
2017-07-05T20:09:51.137Z,0
2017-07-05T20:10:51.123Z,4
2017-07-05T20:11:51.781Z,4
2017-07-05T20:12:51.144Z,0
2017-07-05T20:13:51.735Z,0
2017-07-05T20:14:51.487Z,4
2017-07-05T20:15:51.147Z,4
2017-07-05T20:16:51.491Z,4
2017-07-05T20:17:54.730Z,4
2017-07-05T20:18:51.165Z,0
2017-07-05T20:19:51.187Z,0
2017-07-05T20:20:51.595Z,0
2017-07-05T20:21:51.190Z,0
2017-07-05T20:22:51.226Z,0
2017-07-05T20:23:51.194Z,0
2017-07-05T20:24:51.868Z,0
2017-07-05T20:25:51.853Z,0
2017-07-05T20:26:51.203Z,0
2017-07-05T20:27:51.549Z,0
2017-07-05T20:28:51.660Z,0
2017-07-05T20:29:51.870Z,0
2017-07-05T20:30:51.265Z,0
2017-07-05T20:31:52.037Z,0
2017-07-05T20:32:51.990Z,0
2017-07-05T20:33:51.771Z,0
2017-07-05T20:34:51.889Z,0
2017-07-05T20:35:51.586Z,0
2017-07-05T20:36:51.271Z,0
2017-07-05T20:37:51.914Z,0
2017-07-05T20:38:52.169Z,0
2017-07-05T20:39:51.274Z,0
2017-07-05T20:40:51.279Z,0
2017-07-05T20:41:51.928Z,0
2017-07-05T20:42:52.326Z,0
2017-07-05T20:43:52.627Z,0
2017-07-05T20:44:51.979Z,0
